Angela K — WDE9722 — position and weather

sailwx.info

Track history (hours):
 
Tides and Currents Weather Stations Pressure Air Temp Water Temp Dewpoint Dewpoint Depression Visibility Wind Speed Wind Dir Waves Ship Positions

Angela K

Owner: SCF Waxler Marine LLC, St. Rose, LA. More information available from US FCC via Universal Licensing System and Coast Guard Vessel Documentation Center.

Last reported at 2017-Sep-17 22:58 UTC. Time now 2017-Sep-23 03:45 UTC.
Position N 32°46' W 091°10'.

Length 57 m.

Type: Cargo ship. MMSI: 367420490.

Date/timePositionNaut miles runAvg speedWind from/ knotsBaromVisibWave heightAir tempDewpointWater temp
2017-Sep-17 22:58N 32°46' W 091°10'1 1.1
2017-Sep-17 22:28N 32°45' W 091°09'6 1.8
2017-Sep-17 19:21N 32°40' W 091°08'3 2.7
2017-Sep-17 18:23N 32°38' W 091°09'1 3.6
2017-Sep-17 18:00N 32°36' W 091°09'2 4.3
2017-Sep-17 17:30N 32°35' W 091°07'1 1.8
2017-Sep-17 17:00N 32°34' W 091°06'0 0.0
2017-Sep-17 16:30N 32°34' W 091°06'0 0.0
2017-Sep-17 16:00N 32°34' W 091°06'0 0.1
2017-Sep-17 15:30N 32°34' W 091°06'0 0.0
2017-Sep-17 15:00N 32°34' W 091°06'0 0.0
2017-Sep-17 14:30N 32°34' W 091°06'0 0.4
2017-Sep-17 14:00N 32°35' W 091°07'0 0.0
2017-Sep-17 13:30N 32°35' W 091°07'0 0.0
2017-Sep-17 13:00N 32°35' W 091°07'0 0.0
2017-Sep-17 12:30N 32°35' W 091°07'0 0.0
2017-Sep-17 12:00N 32°35' W 091°07'1 1.5
2017-Sep-17 11:30N 32°35' W 091°07'2 5.0
2017-Sep-17 11:00N 32°37' W 091°09'7 3.5
2017-Sep-17 08:55N 32°44' W 091°09'  
Track history (hours):
 
Tides and Currents Weather Stations Pressure Air Temp Water Temp Dewpoint Dewpoint Depression Visibility Wind Speed Wind Dir Waves Ship Positions

Angela K

Owner: SCF Waxler Marine LLC, St. Rose, LA. More information available from US FCC via Universal Licensing System and Coast Guard Vessel Documentation Center.

Last reported at 2017-Sep-17 22:58 UTC. Time now 2017-Sep-23 03:45 UTC.
Position N 32°46' W 091°10'.

Length 57 m.

Type: Cargo ship. MMSI: 367420490.

Date/timePositionNaut miles runAvg speedWind from/ knotsBaromVisibWave heightAir tempDewpointWater temp
2017-Sep-17 22:58N 32°46' W 091°10'1 1.1
2017-Sep-17 22:28N 32°45' W 091°09'6 1.8
2017-Sep-17 19:21N 32°40' W 091°08'3 2.7
2017-Sep-17 18:23N 32°38' W 091°09'1 3.6
2017-Sep-17 18:00N 32°36' W 091°09'2 4.3
2017-Sep-17 17:30N 32°35' W 091°07'1 1.8
2017-Sep-17 17:00N 32°34' W 091°06'0 0.0
2017-Sep-17 16:30N 32°34' W 091°06'0 0.0
2017-Sep-17 16:00N 32°34' W 091°06'0 0.1
2017-Sep-17 15:30N 32°34' W 091°06'0 0.0
2017-Sep-17 15:00N 32°34' W 091°06'0 0.0
2017-Sep-17 14:30N 32°34' W 091°06'0 0.4
2017-Sep-17 14:00N 32°35' W 091°07'0 0.0
2017-Sep-17 13:30N 32°35' W 091°07'0 0.0
2017-Sep-17 13:00N 32°35' W 091°07'0 0.0
2017-Sep-17 12:30N 32°35' W 091°07'0 0.0
2017-Sep-17 12:00N 32°35' W 091°07'1 1.5
2017-Sep-17 11:30N 32°35' W 091°07'2 5.0
2017-Sep-17 11:00N 32°37' W 091°09'7 3.5
2017-Sep-17 08:55N 32°44' W 091°09'  

Dump ship's entire track history